Time;durP1;ratioP1;P1;durP2;ratioP2;P2;SDS_P1;SDS_P2;PMS_P1;PMS_P2;Temp;Humidity;BMP_temperature;BMP_pressure;BME280_temperature;BME280_humidity;BME280_pressure;Samples;Min_cycle;Max_cycle;Signal;HPM_P1;HPM_P2
2023/12/19 00:01:38;;;;;;;13.48;8.02;;;0.50;99.90;;;;;;4911447;29;20509;-69
2023/12/19 00:04:10;;;;;;;13.70;8.48;;;0.50;99.90;;;;;;4913309;29;20045;-69
2023/12/19 00:06:42;;;;;;;11.30;7.72;;;0.40;99.90;;;;;;4915047;29;20054;-69
2023/12/19 00:09:13;;;;;;;11.63;8.23;;;0.30;99.90;;;;;;4915159;29;20048;-69
2023/12/19 00:11:45;;;;;;;10.18;7.40;;;0.20;99.90;;;;;;4905217;29;20049;-69
2023/12/19 00:14:18;;;;;;;10.90;7.13;;;0.20;99.90;;;;;;4906715;29;20136;-69
2023/12/19 00:16:44;;;;;;;10.85;7.40;;;0.10;99.90;;;;;;4908095;29;20227;-69
2023/12/19 00:19:16;;;;;;;13.73;9.18;;;0.10;99.90;;;;;;4901037;29;20059;-69
2023/12/19 00:21:48;;;;;;;10.60;7.15;;;0.10;99.90;;;;;;4901091;29;20434;-69
2023/12/19 00:24:20;;;;;;;9.77;6.47;;;0.00;99.90;;;;;;4916005;29;20048;-69
2023/12/19 00:26:47;;;;;;;11.30;7.75;;;0.10;99.90;;;;;;4913500;29;20095;-68
2023/12/19 00:29:19;;;;;;;9.45;6.10;;;0.00;99.90;;;;;;4916140;29;20059;-69
2023/12/19 00:31:51;;;;;;;14.07;8.23;;;0.00;99.90;;;;;;4915794;29;20051;-69
2023/12/19 00:34:18;;;;;;;11.80;7.80;;;0.00;99.90;;;;;;4905873;29;20048;-68
2023/12/19 00:36:45;;;;;;;11.02;7.50;;;0.00;99.90;;;;;;4918791;29;20051;-68
2023/12/19 00:39:17;;;;;;;9.48;6.57;;;-0.10;99.90;;;;;;4914332;29;20390;-67
2023/12/19 00:41:49;;;;;;;12.57;8.27;;;-0.10;99.90;;;;;;4905885;29;20088;-69
2023/12/19 00:44:21;;;;;;;9.88;7.30;;;-0.10;99.90;;;;;;4915593;29;20100;-69
2023/12/19 00:46:53;;;;;;;11.27;7.32;;;-0.10;99.90;;;;;;4911959;29;20054;-69
2023/12/19 00:49:19;;;;;;;8.50;5.72;;;-0.10;99.90;;;;;;4912268;29;20051;-68
2023/12/19 00:51:51;;;;;;;10.07;6.60;;;-0.20;99.90;;;;;;4915476;29;20048;-68
2023/12/19 00:54:23;;;;;;;8.57;6.07;;;-0.20;99.90;;;;;;4914203;29;20527;-69
2023/12/19 00:56:55;;;;;;;8.32;5.82;;;-0.20;99.90;;;;;;4915524;29;20561;-68
2023/12/19 00:59:22;;;;;;;9.63;6.70;;;-0.20;99.90;;;;;;4919593;29;20408;-68
2023/12/19 01:01:56;;;;;;;10.38;7.30;;;-0.20;99.90;;;;;;4915436;29;20055;-68
2023/12/19 01:04:28;;;;;;;11.10;8.90;;;-0.20;99.90;;;;;;4898960;29;20404;-68
2023/12/19 01:07:00;;;;;;;11.55;8.43;;;-0.20;99.90;;;;;;4916867;29;20046;-70
2023/12/19 01:09:31;;;;;;;8.23;7.15;;;-0.30;99.90;;;;;;4914043;29;20517;-69
2023/12/19 01:12:03;;;;;;;10.27;7.25;;;-0.30;99.90;;;;;;4911981;29;20040;-69
2023/12/19 01:14:35;;;;;;;8.48;5.15;;;-0.40;99.90;;;;;;4914923;29;20036;-68
2023/12/19 01:17:07;;;;;;;7.95;5.53;;;-0.40;99.90;;;;;;4913051;29;20040;-68
2023/12/19 01:19:39;;;;;;;6.38;4.60;;;-0.30;99.90;;;;;;4914751;29;20417;-69
2023/12/19 01:22:11;;;;;;;6.38;3.50;;;-0.40;99.90;;;;;;4914690;29;20055;-69
2023/12/19 01:24:38;;;;;;;5.05;3.33;;;-0.40;99.90;;;;;;4922828;29;20054;-69
2023/12/19 01:27:10;;;;;;;5.40;3.53;;;-0.30;99.90;;;;;;4915148;29;20052;-69
2023/12/19 01:29:42;;;;;;;4.32;3.25;;;-0.20;99.90;;;;;;4915304;29;20601;-68
2023/12/19 01:32:14;;;;;;;5.35;3.60;;;-0.20;99.90;;;;;;4902924;29;20127;-68
2023/12/19 01:34:43;;;;;;;4.10;3.25;;;-0.20;99.90;;;;;;4914721;29;20044;-68
2023/12/19 01:37:15;;;;;;;5.57;3.05;;;-0.10;99.90;;;;;;4915002;29;20598;-68
2023/12/19 01:39:47;;;;;;;4.10;2.88;;;0.00;99.90;;;;;;4914902;29;20040;-69
2023/12/19 01:42:14;;;;;;;3.97;3.30;;;0.00;99.90;;;;;;4900708;29;20453;-68
2023/12/19 01:45:08;;;;;;;7.80;3.67;;;0.00;99.90;;;;;;4913012;29;20098;-68
2023/12/19 01:47:44;;;;;;;3.83;2.60;;;0.10;99.90;;;;;;4911480;29;20417;-69
2023/12/19 01:50:16;;;;;;;4.43;2.67;;;0.20;99.90;;;;;;4914734;29;20147;-68
2023/12/19 01:52:49;;;;;;;3.83;2.88;;;0.30;99.90;;;;;;4906678;29;20832;-68
2023/12/19 01:55:24;;;;;;;4.38;2.45;;;0.40;99.90;;;;;;4914481;29;20036;-68
2023/12/19 01:57:56;;;;;;;3.70;2.50;;;0.40;99.90;;;;;;4913586;29;20055;-69
2023/12/19 02:00:28;;;;;;;6.60;4.18;;;0.50;99.90;;;;;;4910733;29;20119;-68
2023/12/19 02:03:00;;;;;;;7.57;4.85;;;0.50;99.90;;;;;;4912130;29;20075;-69
2023/12/19 02:05:38;;;;;;;7.25;5.38;;;0.50;99.90;;;;;;4909978;29;20074;-70
2023/12/19 02:08:09;;;;;;;6.20;4.45;;;0.40;99.90;;;;;;4912802;29;20428;-69
2023/12/19 02:10:42;;;;;;;6.68;4.93;;;0.30;99.90;;;;;;4914201;29;20040;-69
2023/12/19 02:13:09;;;;;;;5.70;3.65;;;0.20;99.90;;;;;;4902446;29;20514;-69
2023/12/19 02:15:40;;;;;;;4.82;3.67;;;0.10;99.90;;;;;;4902430;29;20123;-69
2023/12/19 02:18:17;;;;;;;4.03;2.78;;;0.10;99.90;;;;;;4913855;29;20047;-68
2023/12/19 02:20:48;;;;;;;5.22;3.20;;;0.00;99.90;;;;;;4912361;29;20051;-69
2023/12/19 02:23:20;;;;;;;7.05;4.22;;;0.00;99.90;;;;;;4914085;29;20056;-68
2023/12/19 02:25:53;;;;;;;6.00;3.97;;;0.10;99.90;;;;;;4911282;29;20424;-67
2023/12/19 02:28:20;;;;;;;8.43;5.18;;;0.00;99.90;;;;;;4911990;29;20111;-68
2023/12/19 02:30:52;;;;;;;6.47;4.70;;;0.00;99.90;;;;;;4910376;29;20044;-68
2023/12/19 02:33:18;;;;;;;6.90;5.22;;;0.00;99.90;;;;;;4904032;29;20066;-69
2023/12/19 02:35:50;;;;;;;6.90;4.68;;;0.00;99.90;;;;;;4917190;29;20045;-69
2023/12/19 02:38:17;;;;;;;8.43;5.25;;;-0.10;99.90;;;;;;4917436;29;20044;-68
2023/12/19 02:40:49;;;;;;;8.15;4.45;;;-0.10;99.90;;;;;;4897557;29;20052;-69
2023/12/19 02:43:16;;;;;;;7.43;4.70;;;-0.20;99.90;;;;;;4910254;29;20079;-69
2023/12/19 02:45:48;;;;;;;8.85;4.32;;;-0.20;99.90;;;;;;4914116;29;20049;-69
2023/12/19 02:48:20;;;;;;;5.30;4.00;;;-0.20;99.90;;;;;;4906172;29;20274;-68
2023/12/19 02:50:51;;;;;;;6.07;4.47;;;-0.30;99.90;;;;;;4900989;29;20078;-68
2023/12/19 02:53:23;;;;;;;5.88;4.40;;;-0.30;99.90;;;;;;4917472;29;20103;-70
2023/12/19 02:55:55;;;;;;;5.63;4.18;;;-0.30;99.90;;;;;;4917287;29;20036;-68
2023/12/19 02:58:27;;;;;;;4.97;3.47;;;-0.30;99.90;;;;;;4917298;29;20523;-68
2023/12/19 03:00:59;;;;;;;5.90;4.00;;;-0.30;99.90;;;;;;4917323;29;20036;-69
2023/12/19 03:03:31;;;;;;;3.88;2.80;;;-0.30;99.90;;;;;;4917155;29;20044;-68
2023/12/19 03:05:58;;;;;;;3.05;2.25;;;-0.40;99.90;;;;;;4916668;29;20048;-70
2023/12/19 03:08:30;;;;;;;2.55;1.77;;;-0.40;99.90;;;;;;4921780;29;20509;-68
2023/12/19 03:10:58;;;;;;;2.90;1.92;;;-0.40;99.90;;;;;;4917214;29;20120;-68
2023/12/19 03:13:25;;;;;;;2.95;1.90;;;-0.30;99.90;;;;;;4916859;29;20055;-69
2023/12/19 03:15:56;;;;;;;4.07;1.85;;;-0.20;99.90;;;;;;4915515;29;20414;-69
2023/12/19 03:18:28;;;;;;;3.78;2.33;;;0.00;99.90;;;;;;4916255;29;20139;-69
2023/12/19 03:20:55;;;;;;;3.17;2.10;;;0.00;99.90;;;;;;4916929;29;20051;-69
2023/12/19 03:23:22;;;;;;;5.10;2.83;;;0.10;99.90;;;;;;4916798;29;20134;-68
2023/12/19 03:25:54;;;;;;;4.43;2.17;;;0.20;99.90;;;;;;4920063;29;20049;-68
2023/12/19 03:28:26;;;;;;;3.05;2.10;;;0.40;99.90;;;;;;4916756;29;20055;-68
2023/12/19 03:30:58;;;;;;;2.47;1.73;;;0.50;99.90;;;;;;4904386;29;20054;-68
2023/12/19 03:33:31;;;;;;;3.72;2.60;;;0.60;99.90;;;;;;4916518;29;20044;-69
2023/12/19 03:36:03;;;;;;;5.60;3.15;;;0.60;99.90;;;;;;4916251;29;20036;-69
2023/12/19 03:38:35;;;;;;;5.65;3.65;;;0.60;99.90;;;;;;4915898;29;20055;-69
2023/12/19 03:41:07;;;;;;;5.60;3.58;;;0.50;99.90;;;;;;4918424;29;20409;-68
2023/12/19 03:43:38;;;;;;;5.85;4.10;;;0.40;99.90;;;;;;4916518;29;20071;-68
2023/12/19 03:46:10;;;;;;;7.07;4.43;;;0.30;99.90;;;;;;4915627;29;20044;-68
2023/12/19 03:48:44;;;;;;;7.18;4.93;;;0.20;99.90;;;;;;4916502;29;20044;-68
2023/12/19 03:51:16;;;;;;;7.90;4.78;;;0.10;99.90;;;;;;4916344;29;20491;-69
2023/12/19 03:53:48;;;;;;;6.43;3.67;;;0.00;99.90;;;;;;4915959;29;20135;-69
2023/12/19 03:56:20;;;;;;;6.38;3.85;;;0.00;99.90;;;;;;4916474;29;20040;-68
2023/12/19 03:58:47;;;;;;;4.32;3.20;;;0.00;99.90;;;;;;4917841;29;20048;-69
2023/12/19 04:01:20;;;;;;;4.72;3.00;;;-0.10;99.90;;;;;;4914792;29;20126;-68
2023/12/19 04:03:46;;;;;;;5.40;2.72;;;-0.10;99.90;;;;;;4905674;29;20060;-70
2023/12/19 04:06:18;;;;;;;4.05;2.92;;;-0.10;99.90;;;;;;4915888;29;20044;-69
2023/12/19 04:08:51;;;;;;;4.00;2.55;;;-0.10;99.90;;;;;;4912946;29;20528;-68
2023/12/19 04:11:19;;;;;;;3.53;2.42;;;-0.10;99.90;;;;;;4916122;29;20044;-68
2023/12/19 04:13:51;;;;;;;3.28;2.28;;;-0.10;99.90;;;;;;4904811;29;20076;-68
2023/12/19 04:16:23;;;;;;;2.78;1.80;;;-0.20;99.90;;;;;;4913272;29;20127;-69
2023/12/19 04:18:56;;;;;;;2.58;1.55;;;-0.20;99.90;;;;;;4899855;29;20462;-69
2023/12/19 04:21:23;;;;;;;3.47;1.90;;;-0.20;99.90;;;;;;4927968;29;20044;-69
2023/12/19 04:23:54;;;;;;;4.07;2.00;;;-0.10;99.90;;;;;;4915894;29;20052;-69
2023/12/19 04:26:27;;;;;;;3.08;2.20;;;-0.10;99.90;;;;;;4916254;29;20054;-68
2023/12/19 04:28:53;;;;;;;3.22;2.03;;;0.00;99.90;;;;;;4916053;29;20054;-69
2023/12/19 04:31:25;;;;;;;3.30;2.33;;;0.10;99.90;;;;;;4928103;29;20056;-69
2023/12/19 04:33:57;;;;;;;3.70;2.22;;;0.30;99.90;;;;;;4898136;29;20048;-68
2023/12/19 04:36:31;;;;;;;4.65;2.90;;;0.60;99.90;;;;;;4921892;29;20829;-68
2023/12/19 04:39:03;;;;;;;3.60;2.67;;;0.80;99.90;;;;;;4913206;29;20703;-68
2023/12/19 04:41:37;;;;;;;3.08;2.53;;;0.90;99.90;;;;;;4915882;29;20127;-69
2023/12/19 04:44:09;;;;;;;3.50;2.40;;;0.90;99.90;;;;;;4913182;29;20059;-69
2023/12/19 04:46:44;;;;;;;3.95;2.40;;;0.90;99.90;;;;;;4914601;29;20529;-68
2023/12/19 04:49:16;;;;;;;3.30;1.80;;;0.90;99.90;;;;;;4914475;29;20059;-69
2023/12/19 04:51:48;;;;;;;2.20;1.85;;;0.80;99.90;;;;;;4915785;29;20048;-69
2023/12/19 04:54:20;;;;;;;2.40;1.70;;;1.20;99.90;;;;;;4912274;29;20052;-69
2023/12/19 04:56:47;;;;;;;2.45;1.80;;;1.50;99.90;;;;;;4907122;29;20394;-69
2023/12/19 04:59:19;;;;;;;2.10;1.50;;;1.60;99.90;;;;;;4913863;29;20047;-69
2023/12/19 05:01:46;;;;;;;3.38;2.08;;;1.80;99.90;;;;;;4912778;29;20054;-68
2023/12/19 05:04:17;;;;;;;2.88;2.00;;;1.90;99.90;;;;;;4913422;29;20064;-69
2023/12/19 05:06:44;;;;;;;3.50;2.25;;;1.90;99.90;;;;;;4916548;29;20040;-69
2023/12/19 05:09:16;;;;;;;5.32;2.70;;;1.90;99.90;;;;;;4895973;29;20586;-69
2023/12/19 05:11:48;;;;;;;2.80;2.08;;;1.80;99.90;;;;;;4909824;29;20032;-69
2023/12/19 05:14:20;;;;;;;3.10;2.00;;;1.60;99.90;;;;;;4915107;29;20048;-68
2023/12/19 05:16:47;;;;;;;6.32;3.15;;;1.50;99.90;;;;;;4915391;29;20429;-68
2023/12/19 05:19:19;;;;;;;10.98;5.97;;;1.40;99.90;;;;;;4909308;29;20505;-68
2023/12/19 05:21:46;;;;;;;11.90;7.10;;;1.40;99.90;;;;;;4922539;29;20122;-69
2023/12/19 05:24:13;;;;;;;12.18;7.20;;;1.20;99.90;;;;;;4906280;29;20131;-68
2023/12/19 05:26:40;;;;;;;9.60;5.65;;;1.10;99.90;;;;;;4911479;29;20040;-68
2023/12/19 05:29:11;;;;;;;8.30;4.65;;;1.00;99.90;;;;;;4914662;29;20067;-68
2023/12/19 05:31:43;;;;;;;9.00;5.72;;;0.90;99.90;;;;;;4912292;29;20525;-68
2023/12/19 05:34:15;;;;;;;7.70;4.78;;;0.80;99.90;;;;;;4916488;29;20123;-68
2023/12/19 05:36:47;;;;;;;8.73;5.63;;;0.70;99.90;;;;;;4894962;29;20033;-68
2023/12/19 05:39:19;;;;;;;25.50;21.40;;;0.80;99.90;;;;;;4913693;29;20059;-68
2023/12/19 05:41:56;;;;;;;24.25;20.70;;;0.80;99.90;;;;;;4914499;29;20825;-69
2023/12/19 05:44:23;;;;;;;15.80;10.32;;;0.70;99.90;;;;;;4896118;29;20127;-68
2023/12/19 05:46:56;;;;;;;7.85;4.90;;;0.60;99.90;;;;;;4912715;29;20067;-70
2023/12/19 05:49:23;;;;;;;5.68;4.20;;;0.60;99.90;;;;;;4915853;29;20051;-69
2023/12/19 05:51:50;;;;;;;4.57;3.35;;;0.70;99.90;;;;;;4913117;29;20052;-69
2023/12/19 05:54:22;;;;;;;4.88;3.42;;;0.60;99.90;;;;;;4913094;29;20044;-69
2023/12/19 05:56:50;;;;;;;13.57;8.90;;;0.50;99.90;;;;;;4912922;29;20048;-68
2023/12/19 05:59:22;;;;;;;9.90;5.70;;;0.40;99.90;;;;;;4910459;29;20040;-69
2023/12/19 06:01:54;;;;;;;25.33;17.40;;;0.40;99.90;;;;;;4913005;29;20048;-69
2023/12/19 06:04:25;;;;;;;10.65;8.07;;;0.30;99.90;;;;;;4903169;29;20060;-68
2023/12/19 06:06:57;;;;;;;5.18;3.53;;;0.30;99.90;;;;;;4893870;29;20052;-69
2023/12/19 06:09:24;;;;;;;3.22;2.50;;;0.30;99.90;;;;;;4916994;29;20143;-69
2023/12/19 06:11:56;;;;;;;4.53;3.05;;;0.30;99.90;;;;;;4914705;29;20139;-69
2023/12/19 06:14:28;;;;;;;2.50;1.75;;;0.20;99.90;;;;;;4913882;29;20044;-69
2023/12/19 06:17:00;;;;;;;3.15;1.48;;;0.20;99.90;;;;;;4906329;29;20040;-67
2023/12/19 06:19:32;;;;;;;3.33;2.05;;;0.20;99.90;;;;;;4913869;29;20065;-69
2023/12/19 06:22:05;;;;;;;2.90;2.40;;;0.20;99.90;;;;;;4912783;29;20140;-68
2023/12/19 06:24:37;;;;;;;4.00;2.72;;;0.20;99.90;;;;;;4916743;29;20044;-68
2023/12/19 06:27:11;;;;;;;5.50;3.08;;;0.20;99.90;;;;;;4915183;29;20062;-68
2023/12/19 06:29:43;;;;;;;3.47;2.75;;;0.10;99.90;;;;;;4915149;29;20858;-68
2023/12/19 06:32:15;;;;;;;6.10;2.90;;;0.20;99.90;;;;;;4911729;29;20418;-68
2023/12/19 06:34:47;;;;;;;3.60;2.15;;;0.10;99.90;;;;;;4913742;29;20048;-67
2023/12/19 06:37:19;;;;;;;3.83;2.42;;;0.10;99.90;;;;;;4912558;29;20580;-68
2023/12/19 06:39:51;;;;;;;3.28;2.10;;;0.10;99.90;;;;;;4910990;29;20076;-69
2023/12/19 06:42:23;;;;;;;10.80;8.73;;;0.10;99.90;;;;;;4912664;29;20047;-68
2023/12/19 06:44:55;;;;;;;9.20;6.30;;;0.10;99.90;;;;;;4913557;29;20047;-68
2023/12/19 06:47:28;;;;;;;9.90;7.20;;;0.20;99.90;;;;;;4896994;29;20135;-68
2023/12/19 06:49:55;;;;;;;8.63;6.00;;;0.20;99.90;;;;;;4929516;29;20607;-68
2023/12/19 06:52:28;;;;;;;7.07;5.20;;;0.20;99.90;;;;;;4912312;29;20059;-68
2023/12/19 06:55:00;;;;;;;6.57;4.65;;;0.20;99.90;;;;;;4910735;29;20047;-68
2023/12/19 06:57:32;;;;;;;4.72;3.67;;;0.20;99.90;;;;;;4898605;29;20052;-69
2023/12/19 07:00:06;;;;;;;4.55;2.50;;;0.20;99.90;;;;;;4914252;29;20072;-68
2023/12/19 07:02:33;;;;;;;3.25;2.10;;;0.20;99.90;;;;;;4913827;29;20063;-68
2023/12/19 07:05:06;;;;;;;2.85;2.10;;;0.30;99.90;;;;;;4911276;29;20056;-69
2023/12/19 07:07:33;;;;;;;6.13;3.55;;;0.40;99.90;;;;;;4919578;29;20569;-69
2023/12/19 07:10:05;;;;;;;7.07;5.45;;;0.60;99.90;;;;;;4910272;29;20047;-69
2023/12/19 07:12:32;;;;;;;5.88;3.78;;;0.90;99.90;;;;;;4912557;29;20702;-67
2023/12/19 07:15:05;;;;;;;9.70;5.85;;;1.10;99.90;;;;;;4928301;29;20051;-69
2023/12/19 07:17:37;;;;;;;3.83;2.20;;;1.40;99.90;;;;;;4914519;29;20056;-69
2023/12/19 07:20:04;;;;;;;10.73;5.55;;;1.60;99.90;;;;;;4914692;29;20488;-68
2023/12/19 07:22:36;;;;;;;6.75;3.47;;;1.80;99.90;;;;;;4911797;29;20059;-68
2023/12/19 07:25:08;;;;;;;15.10;11.35;;;1.80;99.90;;;;;;4914881;29;20052;-68
2023/12/19 07:27:40;;;;;;;9.05;7.03;;;1.90;99.90;;;;;;4918526;29;20227;-69
2023/12/19 07:30:13;;;;;;;6.55;4.45;;;1.80;99.90;;;;;;4915133;29;20044;-69
2023/12/19 07:32:47;;;;;;;5.43;3.60;;;1.60;99.90;;;;;;4911827;29;20059;-69
2023/12/19 07:35:19;;;;;;;13.63;8.60;;;1.50;99.90;;;;;;4910200;29;20072;-69
2023/12/19 07:37:51;;;;;;;8.35;5.93;;;1.40;99.90;;;;;;4908355;29;20056;-69
2023/12/19 07:40:23;;;;;;;12.25;7.18;;;1.30;99.90;;;;;;4912243;29;20521;-68
2023/12/19 07:42:55;;;;;;;10.85;7.47;;;1.10;99.90;;;;;;4912498;29;20090;-69
2023/12/19 07:45:27;;;;;;;11.02;7.50;;;1.10;99.90;;;;;;4912259;29;20062;-69
2023/12/19 07:47:59;;;;;;;8.02;5.18;;;0.90;99.90;;;;;;4914209;29;20052;-68
2023/12/19 07:50:27;;;;;;;3.67;2.80;;;0.80;99.90;;;;;;4895861;29;20044;-68
2023/12/19 07:52:54;;;;;;;4.57;3.20;;;0.70;99.90;;;;;;4909107;29;20044;-68
2023/12/19 07:55:21;;;;;;;4.25;2.72;;;0.70;99.90;;;;;;4913953;29;20044;-68
2023/12/19 07:57:53;;;;;;;3.47;2.20;;;0.70;99.90;;;;;;4912925;29;20044;-69
2023/12/19 08:00:25;;;;;;;3.50;2.28;;;0.60;99.90;;;;;;4912683;29;20052;-69
2023/12/19 08:02:57;;;;;;;3.63;2.10;;;0.70;99.90;;;;;;4909858;29;20040;-68
2023/12/19 08:05:29;;;;;;;3.17;2.10;;;0.70;99.90;;;;;;4910251;29;20412;-69
2023/12/19 08:08:01;;;;;;;19.08;12.73;;;0.60;99.90;;;;;;4910337;29;20044;-69
2023/12/19 08:10:28;;;;;;;6.93;5.35;;;0.60;99.90;;;;;;4913050;29;20157;-69
2023/12/19 08:13:00;;;;;;;5.07;2.55;;;0.70;99.90;;;;;;4895341;29;20045;-68
2023/12/19 08:15:32;;;;;;;3.03;2.03;;;0.80;99.90;;;;;;4926966;29;20750;-72
2023/12/19 08:18:04;;;;;;;7.10;2.60;;;0.90;99.90;;;;;;4907671;29;20083;-69
2023/12/19 08:20:36;;;;;;;3.50;2.75;;;1.00;99.90;;;;;;4911792;29;20088;-69
2023/12/19 08:23:03;;;;;;;6.20;4.10;;;1.30;99.90;;;;;;4909445;29;20045;-68
2023/12/19 08:25:35;;;;;;;20.15;11.10;;;1.40;99.90;;;;;;4919890;29;20063;-68
2023/12/19 08:28:08;;;;;;;17.83;9.48;;;1.40;99.90;;;;;;4907633;29;20056;-68
2023/12/19 08:30:40;;;;;;;15.55;8.48;;;1.40;99.90;;;;;;4908542;29;20501;-68
2023/12/19 08:33:13;;;;;;;11.77;7.32;;;1.40;99.90;;;;;;4911259;29;20051;-69
2023/12/19 08:35:45;;;;;;;10.52;8.50;;;1.30;99.90;;;;;;4906779;29;20123;-69
2023/12/19 08:38:11;;;;;;;13.30;6.90;;;1.30;99.90;;;;;;4914174;29;20142;-69
2023/12/19 08:40:43;;;;;;;32.47;21.45;;;1.40;99.90;;;;;;4910454;29;20123;-69
2023/12/19 08:43:19;;;;;;;13.38;8.80;;;1.40;99.90;;;;;;4913347;29;20398;-69
2023/12/19 08:45:51;;;;;;;14.82;9.68;;;1.50;99.90;;;;;;4920226;29;20044;-69
2023/12/19 08:48:24;;;;;;;16.42;9.52;;;1.60;99.90;;;;;;4912352;29;20062;-68
2023/12/19 08:50:51;;;;;;;35.67;15.85;;;1.70;99.90;;;;;;4909679;29;20185;-68
2023/12/19 08:53:23;;;;;;;20.77;11.13;;;1.80;99.90;;;;;;4912287;29;20048;-70
2023/12/19 08:55:54;;;;;;;9.10;5.95;;;1.80;99.90;;;;;;4911122;29;20040;-69
2023/12/19 08:58:27;;;;;;;12.85;7.47;;;1.80;99.90;;;;;;4908374;29;20099;-69
2023/12/19 09:00:58;;;;;;;9.20;5.90;;;1.90;99.90;;;;;;4911641;29;20572;-69
2023/12/19 09:03:30;;;;;;;9.18;4.95;;;2.00;99.90;;;;;;4913585;29;20745;-70
2023/12/19 09:06:02;;;;;;;8.93;4.82;;;2.00;99.90;;;;;;4924747;29;20048;-68
2023/12/19 09:08:34;;;;;;;7.93;3.95;;;2.20;99.90;;;;;;4908828;29;20092;-69
2023/12/19 09:11:01;;;;;;;6.85;4.13;;;2.40;99.90;;;;;;4912324;29;20409;-68
2023/12/19 09:13:38;;;;;;;9.82;5.95;;;2.60;99.90;;;;;;4910838;29;20502;-68
2023/12/19 09:16:10;;;;;;;6.63;4.28;;;2.70;99.90;;;;;;4905770;29;20048;-68
2023/12/19 09:18:42;;;;;;;2.80;1.77;;;2.90;99.90;;;;;;4913647;29;20495;-68
2023/12/19 09:21:09;;;;;;;2.83;1.10;;;3.40;99.90;;;;;;4908799;29;20054;-68
2023/12/19 09:23:36;;;;;;;1.40;0.80;;;4.20;99.90;;;;;;4907727;29;20527;-69
2023/12/19 09:26:08;;;;;;;1.00;0.90;;;4.70;99.90;;;;;;4910295;29;20075;-68
2023/12/19 09:28:40;;;;;;;1.65;1.13;;;5.20;99.90;;;;;;4909105;29;20062;-68
2023/12/19 09:31:12;;;;;;;1.40;1.00;;;5.50;99.90;;;;;;4913031;29;20056;-68
2023/12/19 09:33:44;;;;;;;2.38;1.52;;;5.60;99.90;;;;;;4913040;29;20036;-68
2023/12/19 09:36:26;;;;;;;3.45;1.70;;;5.70;99.90;;;;;;4894796;29;20134;-67
2023/12/19 09:38:59;;;;;;;5.28;2.20;;;5.80;99.90;;;;;;4920803;29;20032;-68
2023/12/19 09:41:32;;;;;;;4.10;1.73;;;5.90;99.90;;;;;;4911472;29;20062;-68
2023/12/19 09:44:04;;;;;;;2.83;1.65;;;5.90;99.90;;;;;;4906914;29;20063;-67
2023/12/19 09:46:36;;;;;;;2.10;1.40;;;5.90;99.90;;;;;;4896579;29;20056;-68
2023/12/19 09:49:09;;;;;;;1.10;0.87;;;6.00;99.90;;;;;;4910885;29;20067;-68
2023/12/19 09:51:42;;;;;;;1.55;1.10;;;6.00;99.90;;;;;;4908351;29;20299;-67
2023/12/19 09:54:14;;;;;;;1.83;1.00;;;6.30;99.90;;;;;;4926313;29;20063;-67
2023/12/19 09:56:47;;;;;;;1.50;0.85;;;6.40;99.90;;;;;;4912158;29;20068;-67
2023/12/19 09:59:19;;;;;;;1.58;1.00;;;6.60;99.90;;;;;;4913116;29;20062;-67
2023/12/19 10:01:53;;;;;;;1.08;0.80;;;6.80;99.90;;;;;;4911259;29;20045;-68
2023/12/19 10:04:24;;;;;;;1.38;0.88;;;6.90;99.90;;;;;;4912708;29;20048;-67
2023/12/19 10:06:58;;;;;;;1.45;0.90;;;7.00;99.90;;;;;;4908674;29;20048;-67
2023/12/19 10:09:30;;;;;;;;;;;7.10;99.90;;;;;;4907099;29;20041;-67
2023/12/19 10:12:12;;;;;;;1.40;0.93;;;7.20;99.90;;;;;;4908713;29;19923;-67
2023/12/19 10:14:46;;;;;;;1.27;0.90;;;7.20;99.90;;;;;;4906902;29;20048;-67
2023/12/19 10:17:22;;;;;;;2.40;0.98;;;7.20;99.90;;;;;;4910696;29;20044;-67
2023/12/19 10:19:49;;;;;;;1.13;0.85;;;7.30;99.90;;;;;;4910750;29;20040;-67
2023/12/19 10:22:19;;;;;;;1.30;0.80;;;7.30;99.90;;;;;;4911615;29;20048;-67
2023/12/19 10:24:59;;;;;;;2.40;1.00;;;7.30;99.90;;;;;;4902476;29;20509;-67
2023/12/19 10:27:31;;;;;;;1.13;0.80;;;7.40;99.90;;;;;;4909889;29;20049;-67
2023/12/19 10:30:17;;;;;;;2.10;1.15;;;7.40;99.90;;;;;;4907432;29;20056;-67
2023/12/19 10:32:55;;;;;;;2.17;1.10;;;7.50;99.90;;;;;;4911162;29;20105;-67
2023/12/19 10:35:40;;;;;;;1.33;0.82;;;7.60;99.90;;;;;;4910989;29;20044;-67
2023/12/19 10:38:07;;;;;;;1.50;1.08;;;7.70;99.90;;;;;;4908353;29;20040;-67
2023/12/19 10:40:34;;;;;;;2.42;1.10;;;7.80;99.90;;;;;;4906468;29;20404;-67
2023/12/19 10:43:06;;;;;;;1.85;0.90;;;7.80;99.90;;;;;;4907466;29;20412;-67
2023/12/19 10:45:38;;;;;;;2.85;2.65;;;7.90;99.90;;;;;;4907948;29;20132;-67
2023/12/19 10:48:10;;;;;;;1.63;0.75;;;8.00;99.90;;;;;;4896349;29;20143;-67
2023/12/19 10:50:43;;;;;;;1.45;0.93;;;8.10;99.90;;;;;;4910002;29;20055;-67
2023/12/19 10:53:15;;;;;;;1.20;0.90;;;8.20;99.90;;;;;;4910261;29;20060;-67
2023/12/19 10:55:52;;;;;;;1.73;0.90;;;8.30;99.90;;;;;;4920011;29;20059;-67
2023/12/19 10:58:24;;;;;;;3.40;2.28;;;8.40;99.90;;;;;;4910682;29;20058;-67
2023/12/19 11:00:57;;;;;;;4.35;2.95;;;8.40;99.90;;;;;;4913129;29;20048;-67
2023/12/19 11:03:33;;;;;;;2.47;2.10;;;8.50;99.90;;;;;;4913754;29;20127;-66
2023/12/19 11:06:07;;;;;;;1.48;1.00;;;8.60;99.90;;;;;;4910796;29;20040;-67
2023/12/19 11:08:44;;;;;;;1.45;1.05;;;8.70;99.90;;;;;;4918627;29;20414;-67
2023/12/19 11:11:22;;;;;;;2.28;1.40;;;8.70;99.90;;;;;;4908029;29;20053;-67
2023/12/19 11:13:49;;;;;;;1.60;1.10;;;8.80;99.90;;;;;;4911622;29;20087;-67
2023/12/19 11:16:24;;;;;;;2.20;1.10;;;8.80;99.90;;;;;;4912961;29;20135;-67
2023/12/19 11:19:05;;;;;;;1.67;1.20;;;9.00;99.90;;;;;;4913701;29;20042;-68
2023/12/19 11:21:55;;;;;;;2.88;2.08;;;9.00;99.90;;;;;;4914180;29;20032;-67
2023/12/19 11:24:40;;;;;;;1.83;1.20;;;9.10;99.90;;;;;;4912736;29;20044;-67
2023/12/19 11:27:33;;;;;;;1.35;0.82;;;9.10;99.90;;;;;;4896735;29;20135;-67
2023/12/19 11:30:00;;;;;;;1.55;0.90;;;9.20;99.90;;;;;;4910736;29;20042;-67
2023/12/19 11:32:33;;;;;;;1.70;0.93;;;9.20;99.90;;;;;;4913635;29;20533;-67
2023/12/19 11:35:10;;;;;;;0.90;0.60;;;9.30;99.90;;;;;;4906821;29;20036;-66
2023/12/19 11:37:43;;;;;;;2.47;0.90;;;9.40;99.90;;;;;;4910685;29;20127;-69
2023/12/19 11:40:37;;;;;;;2.42;1.10;;;9.50;99.90;;;;;;4915812;29;20071;-67
2023/12/19 11:43:09;;;;;;;1.42;0.85;;;9.50;99.90;;;;;;4913790;29;20063;-67
2023/12/19 11:45:42;;;;;;;1.83;1.20;;;9.60;99.90;;;;;;4913121;29;20067;-67
2023/12/19 11:48:34;;;;;;;1.55;1.00;;;9.70;99.90;;;;;;4909907;29;20547;-67
2023/12/19 11:51:01;;;;;;;1.17;0.70;;;9.70;99.90;;;;;;4910610;29;20504;-67
2023/12/19 11:53:37;;;;;;;0.90;0.70;;;9.80;99.90;;;;;;4905757;29;20052;-67
2023/12/19 11:56:12;;;;;;;2.25;1.10;;;9.80;99.90;;;;;;4912457;29;20040;-67
2023/12/19 11:58:48;;;;;;;1.30;0.85;;;9.90;99.90;;;;;;4896015;29;20059;-67
2023/12/19 12:01:15;;;;;;;2.35;1.50;;;10.00;99.90;;;;;;4912454;29;20074;-67
2023/12/19 12:03:42;;;;;;;5.80;4.28;;;10.00;99.90;;;;;;4912578;29;20151;-67
2023/12/19 12:06:18;;;;;;;2.58;1.55;;;10.10;99.90;;;;;;4911992;29;20044;-67
2023/12/19 12:08:54;;;;;;;1.15;0.88;;;10.10;99.90;;;;;;4911976;29;20059;-67
2023/12/19 12:11:26;;;;;;;2.40;1.45;;;10.20;99.90;;;;;;4911488;29;20421;-67
2023/12/19 12:14:04;;;;;;;2.03;0.90;;;10.20;99.90;;;;;;4908897;29;20044;-67
2023/12/19 12:16:40;;;;;;;1.13;0.70;;;10.20;99.90;;;;;;4910326;29;20037;-67
2023/12/19 12:19:18;;;;;;;1.35;0.80;;;10.20;99.90;;;;;;4912915;29;20109;-67
2023/12/19 12:21:47;;;;;;;2.63;0.82;;;10.20;99.90;;;;;;4912302;29;20044;-67
2023/12/19 12:24:23;;;;;;;1.20;0.63;;;10.20;99.90;;;;;;4933345;29;20544;-67
2023/12/19 12:27:10;;;;;;;0.93;0.68;;;10.10;99.90;;;;;;4927920;29;20048;-67
2023/12/19 12:29:37;;;;;;;1.95;1.05;;;10.00;99.90;;;;;;4911572;29;20649;-67
2023/12/19 12:32:10;;;;;;;2.95;2.67;;;10.00;99.90;;;;;;4911215;29;20428;-67
2023/12/19 12:34:44;;;;;;;3.47;1.87;;;9.90;99.90;;;;;;4911776;29;20044;-67
2023/12/19 12:37:19;;;;;;;14.25;11.93;;;9.80;99.90;;;;;;4909635;29;20156;-68
2023/12/19 12:39:51;;;;;;;5.97;3.80;;;9.80;99.90;;;;;;4908323;29;20032;-68
2023/12/19 12:42:23;;;;;;;4.38;3.97;;;9.70;99.90;;;;;;4910198;29;20630;-67
2023/12/19 12:45:01;;;;;;;3.28;2.70;;;9.60;99.90;;;;;;4911476;29;20466;-68
2023/12/19 12:47:37;;;;;;;3.05;1.58;;;9.60;99.90;;;;;;4913414;29;20040;-67
2023/12/19 12:50:09;;;;;;;1.95;1.40;;;9.50;99.90;;;;;;4913260;29;20058;-67
2023/12/19 12:52:39;;;;;;;1.73;1.25;;;9.40;99.90;;;;;;4914830;29;20044;-67
2023/12/19 12:55:10;;;;;;;15.57;12.50;;;9.40;99.90;;;;;;4914965;29;20142;-67
2023/12/19 12:57:42;;;;;;;13.40;10.18;;;9.40;99.90;;;;;;4913169;29;20028;-68
2023/12/19 13:00:09;;;;;;;10.20;7.30;;;9.40;99.90;;;;;;4910324;29;20524;-68
2023/12/19 13:02:38;;;;;;;4.95;3.00;;;9.40;99.90;;;;;;4914193;29;20131;-67
2023/12/19 13:05:05;;;;;;;1.30;0.98;;;9.40;99.90;;;;;;4911618;29;20640;-67
2023/12/19 13:07:42;;;;;;;1.35;0.90;;;9.30;99.90;;;;;;4908251;29;20036;-67
2023/12/19 13:10:14;;;;;;;2.05;0.75;;;9.20;99.90;;;;;;4908651;29;20052;-67
2023/12/19 13:12:46;;;;;;;5.85;1.70;;;9.30;99.90;;;;;;4897992;29;20044;-67
2023/12/19 13:15:18;;;;;;;1.15;0.57;;;9.30;99.90;;;;;;4913316;29;20502;-67
2023/12/19 13:17:50;;;;;;;1.48;0.80;;;9.40;99.90;;;;;;4910416;29;20051;-67